Sapphire, NC (28774)

07:53 PM EDT del 28 Settembre 2016 (GMT -0400)
Burlingame | | Change Station

Alt. 3104 ft 35.11 °N, 82.98 °W | Updated 49 seconds ago

Clear
Sereno
60.6 °F
Sembra 60.6 °F
N
0.0
Vento Variabile Vento da NE
Gusts 0.0 mph

Oggi
Massima -- | Minima -- °F
--% Possibilità di precip.
Ieri
Massima -- | Minima -- °F
Precip. -- in
Pressione 29.97 in
Visibilità 10.0 miglia
Nuvole Sereno
Punto di rugiada 51 °F
Umidità 70%
Piovosità 0.00 in
Spessore del manto nevoso Non disponibile.
7:24 AM 7:19 PM
Luna calante, 4% visible
METAR K1A5 282345Z AUTO 00000KT 10SM CLR 15/12 A2997 RMK AO2 T01510122
Pressione 29.97 in
Visibilità 10.0 miglia
Nuvole Sereno
Punto di rugiada 51 °F
Umidità 70%
Piovosità 0.00 in
Spessore del manto nevoso Non disponibile.
7:24 AM 7:19 PM
Luna calante, 4% visible
METAR K1A5 282345Z AUTO 00000KT 10SM CLR 15/12 A2997 RMK AO2 T01510122

10-Day Weather Forecast

Almanac

Astronomia

Sep. 28, 2016 Alba Tramonto
Ora attuale
Crepuscolo civile
Crepuscolo nautico
Crepuscolo astronomico
Luna
Estensione della luce visibile
Lunghezza del giorno
Tomorrow will be .
, % of the Moon is Illuminated

Gli estremi di oggi

State Highs State Lows

Community

WunderPhotos

Upload Photos

1,942,354 foto caricate!

WunderBlog® & News

Nearby

Qualità dell'aria

  Qualità dell'aria Indice AQ Inquinante
Not available.

Profondità neve

Stazione Profondità Altitudine

Attività sismica

Città  Distanza Mag. Data & Ora
Minimo Magnitudo Mostrato è 2.5.

Temperature delle acque costiere

Località Temperatura

Stations

Stazioni meteo nelle vicinanze

Ubicazione della stazione Temp. Raffreddamento del vento Punto di rugiada Umidità Vento Precip. Alt. Aggiornato Tipo
                   

Watches & Warnings

There are currently no watches in effect.